Time;durP1;ratioP1;P1;durP2;ratioP2;P2;SDS_P1;SDS_P2;PMS_P1;PMS_P2;Temp;Humidity;BMP_temperature;BMP_pressure;BME280_temperature;BME280_humidity;BME280_pressure;Samples;Min_cycle;Max_cycle;Signal;HPM_P1;HPM_P2
2023/08/18 00:01:44;;;;;;;8.60;6.00;;;20.10;99.90;;;;;;5015346;28;20029;-96
2023/08/18 00:04:10;;;;;;;7.40;5.97;;;20.10;99.90;;;;;;5021451;28;20048;-96
2023/08/18 00:06:36;;;;;;;8.23;6.63;;;20.10;99.90;;;;;;5020838;28;20034;-96
2023/08/18 00:09:05;;;;;;;8.93;6.65;;;20.10;99.90;;;;;;5021063;28;20026;-96
2023/08/18 00:11:31;;;;;;;9.48;6.25;;;20.10;99.90;;;;;;5016735;28;20046;-96
2023/08/18 00:13:57;;;;;;;7.20;5.97;;;20.00;99.90;;;;;;5017614;28;20022;-96
2023/08/18 00:16:23;;;;;;;7.88;5.90;;;20.00;99.90;;;;;;5017060;28;20427;-96
2023/08/18 00:18:48;;;;;;;6.97;5.80;;;20.00;99.90;;;;;;5021708;28;20021;-96
2023/08/18 00:21:14;;;;;;;9.00;6.38;;;20.00;99.90;;;;;;5038603;28;20040;-96
2023/08/18 00:23:41;;;;;;;7.90;6.72;;;20.00;99.90;;;;;;5038818;28;20017;-96
2023/08/18 00:26:10;;;;;;;8.40;6.13;;;20.00;99.90;;;;;;5038763;28;20038;-96
2023/08/18 00:28:36;;;;;;;9.05;6.00;;;20.00;99.90;;;;;;5038741;28;20025;-96
2023/08/18 00:31:02;;;;;;;7.43;5.75;;;20.00;99.90;;;;;;5038798;28;20042;-96
2023/08/18 00:33:28;;;;;;;7.00;5.65;;;19.90;99.90;;;;;;5036157;28;20010;-93
2023/08/18 00:35:53;;;;;;;8.90;6.00;;;19.90;99.90;;;;;;5014417;28;20421;-93
2023/08/18 00:38:19;;;;;;;9.57;5.65;;;19.90;99.90;;;;;;5014214;28;20089;-93
2023/08/18 00:40:45;;;;;;;6.90;6.03;;;19.90;99.90;;;;;;5014296;28;20475;-93
2023/08/18 00:43:11;;;;;;;7.05;5.57;;;19.90;99.90;;;;;;5013938;28;20025;-93
2023/08/18 00:45:40;;;;;;;11.30;6.50;;;19.90;99.90;;;;;;5014592;28;20029;-93
2023/08/18 00:48:06;;;;;;;8.60;6.72;;;19.90;99.90;;;;;;5014272;28;20029;-93
2023/08/18 00:50:32;;;;;;;8.32;6.95;;;19.90;99.90;;;;;;5014314;28;20446;-93
2023/08/18 00:53:02;;;;;;;9.23;6.68;;;19.90;99.90;;;;;;5014817;28;20038;-93
2023/08/18 00:55:29;;;;;;;11.17;7.27;;;19.90;99.90;;;;;;5014806;28;20014;-93
2023/08/18 00:58:05;;;;;;;8.50;6.38;;;19.90;99.90;;;;;;5014326;28;20281;-93
2023/08/18 01:00:32;;;;;;;9.02;7.15;;;19.90;99.90;;;;;;5013792;28;20145;-94
2023/08/18 01:03:03;;;;;;;8.73;6.32;;;19.90;99.90;;;;;;5014056;28;20084;-93
2023/08/18 01:05:29;;;;;;;9.25;6.40;;;19.80;99.90;;;;;;5014808;28;20049;-93
2023/08/18 01:07:55;;;;;;;9.68;6.68;;;19.80;99.90;;;;;;5014253;28;20061;-93
2023/08/18 01:10:24;;;;;;;7.63;5.80;;;19.80;99.90;;;;;;5014877;28;20025;-96
2023/08/18 01:12:57;;;;;;;8.25;5.78;;;19.80;99.90;;;;;;5015657;28;20025;-95
2023/08/18 01:15:36;;;;;;;7.82;6.05;;;19.80;99.90;;;;;;5014544;28;20025;-96
2023/08/18 01:18:04;;;;;;;9.27;6.60;;;19.80;99.90;;;;;;5014722;28;20022;-95
2023/08/18 01:20:32;;;;;;;8.05;6.45;;;19.80;99.90;;;;;;5015099;28;20063;-95
2023/08/18 01:23:05;;;;;;;9.57;6.38;;;19.80;99.90;;;;;;4998160;28;20026;-96
2023/08/18 01:26:14;;;;;;;7.70;5.93;;;19.80;99.90;;;;;;5015357;28;20029;-96
2023/08/18 01:29:23;;;;;;;8.82;6.72;;;19.80;99.90;;;;;;5003199;28;20037;-96
2023/08/18 01:31:57;;;;;;;7.50;5.60;;;19.70;99.90;;;;;;5006880;28;20033;-96
2023/08/18 01:35:08;;;;;;;8.40;6.60;;;19.70;99.90;;;;;;5015811;28;20033;-96
2023/08/18 01:38:02;;;;;;;9.23;6.60;;;19.70;99.90;;;;;;5014652;28;20026;-96
2023/08/18 01:40:56;;;;;;;7.00;5.90;;;19.70;99.90;;;;;;5016818;28;20026;-96
2023/08/18 01:43:34;;;;;;;8.45;6.30;;;19.70;99.90;;;;;;5014907;28;20352;-96
2023/08/18 01:46:18;;;;;;;11.45;6.43;;;19.70;99.90;;;;;;5014958;28;20084;-96
2023/08/18 01:48:53;;;;;;;8.27;6.43;;;19.70;99.90;;;;;;5015312;28;20026;-95
2023/08/18 01:51:26;;;;;;;10.85;7.40;;;19.60;99.90;;;;;;5013818;28;20046;-96
2023/08/18 01:54:15;;;;;;;7.93;6.15;;;19.60;99.90;;;;;;4982625;28;20061;-96
2023/08/18 01:57:13;;;;;;;8.35;6.25;;;19.60;99.90;;;;;;4999303;28;20125;-96
2023/08/18 01:59:44;;;;;;;7.57;5.97;;;19.60;99.90;;;;;;4986200;28;20035;-96
2023/08/18 02:02:28;;;;;;;8.60;6.20;;;19.60;99.90;;;;;;4981872;28;20064;-96
2023/08/18 02:04:58;;;;;;;7.88;6.13;;;19.60;99.90;;;;;;4983093;28;20173;-96
2023/08/18 02:07:27;;;;;;;8.50;5.53;;;19.60;99.90;;;;;;4997853;28;20034;-96
2023/08/18 02:09:55;;;;;;;6.50;5.75;;;19.60;99.90;;;;;;4997873;28;20010;-96
2023/08/18 02:12:33;;;;;;;9.02;6.47;;;19.50;99.90;;;;;;4997452;28;20480;-96
2023/08/18 02:15:12;;;;;;;10.27;6.40;;;19.50;99.90;;;;;;4983150;28;20091;-96
2023/08/18 02:18:58;;;;;;;8.88;5.78;;;19.50;99.90;;;;;;4999385;28;20096;-96
2023/08/18 02:22:18;;;;;;;;;;;;;;;;;;;;;
2023/08/18 02:27:36;;;;;;;7.22;5.40;;;19.50;99.90;;;;;;4958433;29;20054;-96
2023/08/18 02:32:38;;;;;;;8.57;6.30;;;19.50;99.90;;;;;;5004319;23;20066;-90
2023/08/18 02:35:04;;;;;;;8.30;6.03;;;19.50;99.90;;;;;;4981277;28;20041;-91
2023/08/18 02:37:29;;;;;;;8.95;6.30;;;19.50;99.90;;;;;;4998041;28;20034;-90
2023/08/18 02:39:55;;;;;;;7.82;6.43;;;19.50;99.90;;;;;;5012803;28;20049;-91
2023/08/18 02:42:23;;;;;;;7.15;5.85;;;19.50;99.90;;;;;;5002041;28;20022;-91
2023/08/18 02:44:49;;;;;;;8.48;6.15;;;19.40;99.90;;;;;;5003061;28;20029;-90
2023/08/18 02:47:38;;;;;;;6.55;5.78;;;19.40;99.90;;;;;;5019358;28;20022;-91
2023/08/18 02:50:05;;;;;;;8.20;5.80;;;19.40;99.90;;;;;;5007179;28;20092;-95
2023/08/18 02:52:35;;;;;;;7.78;6.97;;;19.40;99.90;;;;;;5000279;28;20037;-91
2023/08/18 02:55:03;;;;;;;8.40;6.18;;;19.40;99.90;;;;;;5014930;28;20022;-90
2023/08/18 02:57:31;;;;;;;11.20;6.40;;;19.40;99.90;;;;;;4988120;28;20479;-92
2023/08/18 02:59:57;;;;;;;10.25;7.93;;;19.40;99.90;;;;;;4980807;28;20049;-91
2023/08/18 03:02:27;;;;;;;10.77;7.72;;;19.40;99.90;;;;;;4996196;28;20026;-91
2023/08/18 03:04:56;;;;;;;9.40;7.95;;;19.40;99.90;;;;;;4981020;28;20523;-91
2023/08/18 03:07:24;;;;;;;9.35;7.68;;;19.40;99.90;;;;;;4996615;28;20037;-91
2023/08/18 03:09:52;;;;;;;8.32;7.40;;;19.40;99.90;;;;;;4996407;28;20022;-91
2023/08/18 03:12:21;;;;;;;8.35;7.13;;;19.40;99.90;;;;;;4996208;28;20026;-91
2023/08/18 03:14:47;;;;;;;11.13;8.43;;;19.40;99.90;;;;;;4996232;28;20025;-91
2023/08/18 03:17:12;;;;;;;11.55;7.90;;;19.40;99.90;;;;;;4996095;28;20022;-91
2023/08/18 03:19:49;;;;;;;9.32;8.18;;;19.40;99.90;;;;;;4996389;28;20029;-91
2023/08/18 03:22:17;;;;;;;10.23;8.80;;;19.30;99.90;;;;;;4996572;28;20037;-91
2023/08/18 03:24:46;;;;;;;11.30;8.65;;;19.30;99.90;;;;;;4980671;28;20050;-91
2023/08/18 03:27:14;;;;;;;13.10;8.73;;;19.30;99.90;;;;;;4996883;28;20046;-92
2023/08/18 03:29:43;;;;;;;14.10;9.73;;;19.30;99.90;;;;;;4980302;28;20451;-91
2023/08/18 03:32:08;;;;;;;11.70;10.43;;;19.30;99.90;;;;;;4995940;28;20073;-92
2023/08/18 03:34:37;;;;;;;11.13;9.23;;;19.30;99.90;;;;;;4996215;28;20022;-91
2023/08/18 03:37:08;;;;;;;13.52;11.07;;;19.30;99.90;;;;;;4980672;28;20038;-92
2023/08/18 03:39:38;;;;;;;14.18;9.88;;;19.30;99.90;;;;;;4981127;28;20041;-91
2023/08/18 03:42:04;;;;;;;15.00;11.68;;;19.30;99.90;;;;;;5012897;28;20097;-91
2023/08/18 03:44:32;;;;;;;13.82;12.23;;;19.30;99.90;;;;;;5002944;28;20010;-91
2023/08/18 03:46:58;;;;;;;15.57;12.30;;;19.30;99.90;;;;;;5018626;28;20042;-91
2023/08/18 03:49:28;;;;;;;15.38;12.45;;;19.30;99.90;;;;;;4988033;28;20053;-90
2023/08/18 03:51:56;;;;;;;15.05;12.05;;;19.30;99.90;;;;;;4980254;28;20037;-91
2023/08/18 03:54:22;;;;;;;15.90;13.65;;;19.30;99.90;;;;;;4979484;28;20037;-90
2023/08/18 03:56:48;;;;;;;14.98;12.63;;;19.30;99.90;;;;;;4979336;28;20030;-91
2023/08/18 03:59:21;;;;;;;16.33;13.00;;;19.30;99.90;;;;;;4995859;28;20625;-91
2023/08/18 04:01:50;;;;;;;15.63;13.93;;;19.20;99.90;;;;;;4995465;28;20374;-92
2023/08/18 04:04:18;;;;;;;15.05;13.07;;;19.20;99.90;;;;;;4994924;28;20027;-91
2023/08/18 04:07:01;;;;;;;16.58;13.15;;;19.30;99.90;;;;;;4979222;28;20042;-91
2023/08/18 04:09:28;;;;;;;16.50;13.65;;;19.30;99.90;;;;;;4980729;28;20026;-91
2023/08/18 04:11:56;;;;;;;17.90;14.00;;;19.30;99.90;;;;;;4995045;28;20435;-91
2023/08/18 04:14:25;;;;;;;18.27;14.55;;;19.20;99.90;;;;;;4993927;28;20451;-91
2023/08/18 04:16:51;;;;;;;17.88;14.20;;;19.20;99.90;;;;;;4995325;28;20470;-91
2023/08/18 04:19:19;;;;;;;20.13;13.70;;;19.30;99.90;;;;;;4994777;28;20026;-92
2023/08/18 04:21:45;;;;;;;18.63;14.30;;;19.20;99.90;;;;;;4981962;28;20032;-91
2023/08/18 04:24:17;;;;;;;17.73;14.48;;;19.20;99.90;;;;;;4996084;28;20430;-91
2023/08/18 04:26:51;;;;;;;18.17;15.18;;;19.20;99.90;;;;;;4995564;28;20081;-91
2023/08/18 04:29:22;;;;;;;18.55;14.30;;;19.20;99.90;;;;;;4994499;28;20475;-91
2023/08/18 04:34:37;;;;;;;20.30;14.85;;;19.20;99.90;;;;;;4995859;28;20017;-91
2023/08/18 04:37:12;;;;;;;19.58;16.40;;;19.20;99.90;;;;;;4995934;28;20172;-89
2023/08/18 04:39:38;;;;;;;24.90;17.10;;;19.20;99.90;;;;;;4994892;28;20026;-89
2023/08/18 04:42:10;;;;;;;20.48;15.45;;;19.20;99.90;;;;;;4994867;28;20500;-89
2023/08/18 04:44:38;;;;;;;20.83;16.17;;;19.20;99.90;;;;;;4979425;28;20031;-92
2023/08/18 04:47:11;;;;;;;20.73;16.88;;;19.20;99.90;;;;;;4996312;28;20042;-89
2023/08/18 04:49:37;;;;;;;24.23;17.38;;;19.20;99.90;;;;;;4982707;28;20022;-89
2023/08/18 04:52:13;;;;;;;;;;;;;;;;;;;;;
2023/08/18 04:54:44;;;;;;;23.67;17.38;;;19.10;99.90;;;;;;4999154;28;20098;-90
2023/08/18 04:57:10;;;;;;;24.45;17.77;;;19.10;99.90;;;;;;4994877;28;20034;-89
2023/08/18 04:59:36;;;;;;;20.67;16.88;;;19.10;99.90;;;;;;4996917;28;20485;-90
2023/08/18 05:02:12;;;;;;;;;;;;;;;;;;;;;
2023/08/18 05:04:38;;;;;;;23.50;16.65;;;19.20;99.90;;;;;;4999019;28;20101;-89
2023/08/18 05:07:07;;;;;;;22.35;16.58;;;19.10;99.90;;;;;;4996658;28;20065;-89
2023/08/18 05:09:37;;;;;;;23.67;17.67;;;19.10;99.90;;;;;;4981138;28;20030;-90
2023/08/18 05:12:07;;;;;;;21.30;17.67;;;19.10;99.90;;;;;;4980016;28;20537;-90
2023/08/18 05:14:41;;;;;;;20.63;17.63;;;19.20;99.90;;;;;;4965143;28;20578;-90
2023/08/18 05:17:14;;;;;;;25.95;17.48;;;19.10;99.90;;;;;;4996559;28;20288;-90
2023/08/18 05:19:40;;;;;;;22.98;17.83;;;19.10;99.90;;;;;;4992955;28;20032;-73
2023/08/18 05:22:06;;;;;;;23.52;17.35;;;19.10;99.90;;;;;;4993892;28;20022;-73
2023/08/18 05:24:45;;;;;;;24.98;19.27;;;19.10;99.90;;;;;;4995303;28;20030;-90
2023/08/18 05:27:13;;;;;;;23.77;18.10;;;19.10;99.90;;;;;;5001018;28;20034;-90
2023/08/18 05:30:05;;;;;;;22.83;17.88;;;19.10;99.90;;;;;;5000067;28;20080;-89
2023/08/18 05:32:31;;;;;;;24.08;18.55;;;19.10;99.90;;;;;;4998283;28;20050;-89
2023/08/18 05:34:59;;;;;;;26.80;19.77;;;19.10;99.90;;;;;;4997894;28;20033;-89
2023/08/18 05:37:24;;;;;;;27.15;20.20;;;19.10;99.90;;;;;;4998162;28;20089;-89
2023/08/18 05:40:00;;;;;;;25.67;18.00;;;19.20;99.90;;;;;;4998182;28;20030;-89
2023/08/18 05:42:25;;;;;;;20.08;16.77;;;19.10;99.90;;;;;;4982075;28;20088;-89
2023/08/18 05:44:54;;;;;;;26.77;18.75;;;19.20;99.90;;;;;;4981412;28;20027;-89
2023/08/18 05:47:22;;;;;;;30.02;19.02;;;19.10;99.90;;;;;;4995545;28;20034;-90
2023/08/18 05:49:48;;;;;;;24.10;17.80;;;19.10;99.90;;;;;;4996396;28;20053;-90
2023/08/18 05:52:17;;;;;;;25.05;18.98;;;19.20;99.90;;;;;;4997348;28;20030;-90
2023/08/18 05:54:44;;;;;;;27.33;19.15;;;19.20;99.90;;;;;;4997608;28;20077;-91
2023/08/18 05:57:28;;;;;;;23.63;17.20;;;19.20;99.90;;;;;;4990060;28;20030;-90
2023/08/18 05:59:56;;;;;;;24.25;18.23;;;19.20;99.90;;;;;;4999180;28;20034;-91
2023/08/18 06:02:27;;;;;;;28.83;19.27;;;19.20;99.90;;;;;;4997516;28;20030;-90
2023/08/18 06:04:55;;;;;;;;;;;19.20;99.90;;;;;;4998156;28;20154;-91
2023/08/18 06:07:23;;;;;;;20.77;15.73;;;19.20;99.90;;;;;;4997853;28;20033;-89
2023/08/18 06:09:50;;;;;;;29.10;17.85;;;19.20;99.90;;;;;;5009163;28;20042;-90
2023/08/18 06:12:16;;;;;;;26.05;18.05;;;19.20;99.90;;;;;;5002852;28;20019;-90
2023/08/18 06:14:44;;;;;;;26.52;19.08;;;19.20;99.90;;;;;;5000789;28;20074;-90
2023/08/18 06:17:17;;;;;;;24.27;18.40;;;19.20;99.90;;;;;;4999869;28;20022;-88
2023/08/18 06:19:45;;;;;;;25.27;18.65;;;19.20;99.90;;;;;;4998497;28;20053;-89
2023/08/18 06:22:11;;;;;;;25.27;17.42;;;19.20;99.90;;;;;;4983116;28;20064;-88
2023/08/18 06:24:39;;;;;;;25.75;17.65;;;19.20;99.90;;;;;;4999047;28;20031;-90
2023/08/18 06:27:05;;;;;;;27.65;19.80;;;19.20;99.90;;;;;;5001556;28;20030;-90
2023/08/18 06:29:31;;;;;;;26.02;18.65;;;19.20;99.90;;;;;;5020176;28;20031;-94
2023/08/18 06:31:59;;;;;;;24.70;17.23;;;19.20;99.90;;;;;;5020386;28;20035;-91
2023/08/18 06:34:25;;;;;;;27.08;17.60;;;19.20;99.90;;;;;;5020725;28;20046;-90
2023/08/18 06:36:53;;;;;;;20.90;16.52;;;19.20;99.90;;;;;;5019654;28;20106;-90
2023/08/18 06:39:19;;;;;;;24.85;17.27;;;19.20;99.90;;;;;;5002832;28;20074;-91
2023/08/18 06:42:08;;;;;;;22.67;16.77;;;19.20;99.90;;;;;;5020211;28;20047;-96
2023/08/18 06:44:34;;;;;;;28.45;18.27;;;19.30;99.90;;;;;;5018033;28;20053;-92
2023/08/18 06:47:01;;;;;;;23.23;18.33;;;19.30;99.90;;;;;;5018720;28;20042;-89
2023/08/18 06:49:27;;;;;;;23.52;17.10;;;19.30;99.90;;;;;;5013943;28;20026;-90
2023/08/18 06:51:53;;;;;;;29.40;19.25;;;19.30;99.90;;;;;;4983591;28;20045;-87
2023/08/18 06:54:18;;;;;;;26.00;18.27;;;19.30;99.90;;;;;;4978804;28;20117;-90
2023/08/18 06:56:44;;;;;;;36.90;19.45;;;19.30;99.90;;;;;;4996077;28;20482;-90
2023/08/18 06:59:14;;;;;;;26.00;18.08;;;19.30;99.90;;;;;;4996482;28;20022;-89
2023/08/18 07:01:40;;;;;;;25.95;18.95;;;19.30;99.90;;;;;;5002651;28;20030;-89
2023/08/18 07:04:09;;;;;;;27.65;19.23;;;19.40;99.90;;;;;;4980381;28;20367;-90
2023/08/18 07:06:40;;;;;;;30.60;18.45;;;19.40;99.90;;;;;;4977980;28;20032;-90
2023/08/18 07:09:14;;;;;;;27.67;19.90;;;19.40;99.90;;;;;;4980013;28;20035;-89
2023/08/18 07:11:40;;;;;;;34.05;18.67;;;19.40;99.90;;;;;;4996967;28;20026;-89
2023/08/18 07:14:06;;;;;;;26.70;19.70;;;19.40;99.90;;;;;;4996022;28;20022;-89
2023/08/18 07:16:32;;;;;;;28.15;19.35;;;19.40;99.90;;;;;;4979955;28;20485;-89
2023/08/18 07:18:57;;;;;;;26.55;18.80;;;19.50;99.90;;;;;;4995808;28;20080;-89
2023/08/18 07:21:23;;;;;;;25.80;18.00;;;19.50;99.90;;;;;;4995674;28;20030;-88
2023/08/18 07:23:54;;;;;;;24.23;18.98;;;19.50;99.90;;;;;;4995444;28;20034;-89
2023/08/18 07:26:20;;;;;;;25.13;17.75;;;19.50;99.90;;;;;;4979699;28;20042;-89
2023/08/18 07:28:45;;;;;;;24.33;18.13;;;19.50;99.90;;;;;;4995179;28;20088;-91
2023/08/18 07:31:11;;;;;;;24.80;18.05;;;19.50;99.90;;;;;;4995178;28;20192;-90
2023/08/18 07:33:55;;;;;;;21.42;16.05;;;19.50;99.90;;;;;;4978678;28;20065;-90
2023/08/18 07:36:21;;;;;;;23.77;18.27;;;19.50;99.90;;;;;;4996932;28;20038;-90
2023/08/18 07:38:46;;;;;;;24.27;18.77;;;19.50;99.90;;;;;;4964296;28;20030;-90
2023/08/18 07:41:12;;;;;;;23.13;17.08;;;19.60;99.90;;;;;;4996582;28;20111;-90
2023/08/18 07:43:41;;;;;;;22.10;17.90;;;19.50;99.90;;;;;;4996513;28;20033;-90
2023/08/18 07:46:08;;;;;;;25.77;18.00;;;19.60;99.90;;;;;;4965922;28;20038;-90
2023/08/18 07:48:38;;;;;;;21.05;16.98;;;19.60;99.90;;;;;;4997780;28;20061;-90
2023/08/18 07:51:04;;;;;;;23.83;17.83;;;19.60;99.90;;;;;;4966716;28;20054;-90
2023/08/18 07:53:33;;;;;;;28.25;19.27;;;19.60;99.90;;;;;;4980735;28;20023;-90
2023/08/18 07:56:00;;;;;;;21.85;16.92;;;19.70;99.90;;;;;;4964362;28;20026;-90
2023/08/18 07:58:26;;;;;;;24.67;18.40;;;19.70;99.90;;;;;;4997399;28;20022;-89
2023/08/18 08:00:52;;;;;;;31.67;20.17;;;19.70;99.90;;;;;;4980866;28;20031;-90
2023/08/18 08:03:20;;;;;;;27.58;18.95;;;19.70;99.90;;;;;;4980523;28;20033;-90
2023/08/18 08:05:48;;;;;;;22.95;17.73;;;19.70;99.90;;;;;;4967686;28;20035;-89
2023/08/18 08:08:27;;;;;;;28.40;19.38;;;19.70;99.90;;;;;;4997469;28;20041;-95
2023/08/18 08:13:46;;;;;;;23.55;17.15;;;19.70;99.90;;;;;;5015786;28;20352;-94
2023/08/18 08:16:12;;;;;;;22.58;17.83;;;19.80;99.90;;;;;;5000015;28;20125;-94
2023/08/18 08:18:38;;;;;;;23.63;18.77;;;19.80;99.90;;;;;;4999458;28;20062;-93
2023/08/18 08:24:29;;;;;;;21.52;16.88;;;19.80;99.90;;;;;;5016345;28;20052;-91
2023/08/18 08:26:54;;;;;;;22.63;18.08;;;19.80;99.90;;;;;;4998642;28;20061;-90
2023/08/18 08:29:20;;;;;;;24.63;18.33;;;19.90;99.90;;;;;;4983085;28;20466;-91
2023/08/18 08:31:46;;;;;;;22.63;18.25;;;19.90;99.90;;;;;;4998448;28;20022;-91
2023/08/18 08:34:11;;;;;;;21.13;16.27;;;19.90;99.90;;;;;;4998273;28;20025;-91
2023/08/18 08:36:37;;;;;;;21.33;17.98;;;19.90;99.90;;;;;;4998355;28;20111;-90
2023/08/18 08:39:04;;;;;;;18.00;15.45;;;19.90;99.90;;;;;;5004655;28;20024;-94
2023/08/18 08:41:30;;;;;;;19.98;16.42;;;19.90;99.90;;;;;;5020737;28;20085;-96
2023/08/18 08:43:55;;;;;;;20.80;15.98;;;20.00;99.90;;;;;;4990112;28;20037;-94
2023/08/18 08:46:22;;;;;;;21.40;17.70;;;20.00;99.90;;;;;;4999689;28;20026;-94
2023/08/18 08:48:51;;;;;;;22.77;16.98;;;20.00;99.90;;;;;;4983088;28;20079;-94
2023/08/18 08:51:21;;;;;;;20.92;16.45;;;20.00;99.90;;;;;;5015889;28;20025;-95
2023/08/18 08:53:47;;;;;;;21.52;18.02;;;20.10;99.90;;;;;;5016046;28;20033;-93
2023/08/18 08:56:16;;;;;;;20.60;17.20;;;20.10;99.90;;;;;;4998864;28;20030;-95
2023/08/18 08:58:42;;;;;;;19.45;16.83;;;20.10;99.90;;;;;;4999160;28;20109;-95
2023/08/18 09:01:09;;;;;;;20.83;16.52;;;20.10;99.90;;;;;;4998015;28;20452;-94
2023/08/18 09:03:35;;;;;;;18.55;15.02;;;20.10;99.90;;;;;;4999118;28;20021;-93
